Time;durP1;ratioP1;P1;durP2;ratioP2;P2;SDS_P1;SDS_P2;PMS_P1;PMS_P2;Temp;Humidity;BMP_temperature;BMP_pressure;BME280_temperature;BME280_humidity;BME280_pressure;Samples;Min_cycle;Max_cycle;Signal;HPM_P1;HPM_P2
2021/09/29 00:00:58;;;;;;;9.30;5.75;;;;;;;;;;4983194;28;20527;-58
2021/09/29 00:03:24;;;;;;;11.88;5.50;;;;;;;;;;4999106;28;20460;-58
2021/09/29 00:05:49;;;;;;;8.63;5.28;;;;;;;;;;4990328;28;20040;-58
2021/09/29 00:08:15;;;;;;;11.20;5.45;;;;;;;;;;4987303;28;20023;-58
2021/09/29 00:10:41;;;;;;;16.13;5.65;;;;;;;;;;4987446;28;20034;-57
2021/09/29 00:13:07;;;;;;;11.93;6.28;;;;;;;;;;4987109;28;20037;-57
2021/09/29 00:15:32;;;;;;;10.90;5.97;;;;;;;;;;4990133;28;20042;-58
2021/09/29 00:17:58;;;;;;;9.48;5.88;;;;;;;;;;4988927;28;20080;-58
2021/09/29 00:20:23;;;;;;;10.68;6.05;;;;;;;;;;5002597;28;20035;-58
2021/09/29 00:22:49;;;;;;;12.77;6.65;;;;;;;;;;5016704;28;20039;-58
2021/09/29 00:25:16;;;;;;;18.88;6.88;;;;;;;;;;4988419;28;20416;-58
2021/09/29 00:27:42;;;;;;;11.98;6.88;;;;;;;;;;4987284;28;20749;-61
2021/09/29 00:30:09;;;;;;;13.35;6.82;;;;;;;;;;4983310;28;20103;-58
2021/09/29 00:32:39;;;;;;;13.90;7.18;;;;;;;;;;4996512;28;20041;-58
2021/09/29 00:35:05;;;;;;;11.77;6.88;;;;;;;;;;4980109;28;20030;-59
2021/09/29 00:37:31;;;;;;;13.88;7.88;;;;;;;;;;4984890;28;20623;-58
2021/09/29 00:39:56;;;;;;;12.63;6.88;;;;;;;;;;5030055;28;20038;-58
2021/09/29 00:42:22;;;;;;;10.82;7.22;;;;;;;;;;4984512;28;20034;-58
2021/09/29 00:44:50;;;;;;;12.07;7.15;;;;;;;;;;4999727;28;20022;-58
2021/09/29 00:47:16;;;;;;;10.82;6.72;;;;;;;;;;4989610;28;20501;-58
2021/09/29 00:49:41;;;;;;;14.75;8.27;;;;;;;;;;4982797;28;20108;-58
2021/09/29 00:52:07;;;;;;;14.52;7.47;;;;;;;;;;5012892;28;20073;-58
2021/09/29 00:54:32;;;;;;;14.43;8.20;;;;;;;;;;5001236;28;20032;-61
2021/09/29 00:56:58;;;;;;;17.33;8.15;;;;;;;;;;4990292;28;20566;-60
2021/09/29 00:59:24;;;;;;;14.55;8.13;;;;;;;;;;5041709;28;20058;-58
2021/09/29 01:01:51;;;;;;;17.52;8.38;;;;;;;;;;4980204;28;20058;-58
2021/09/29 01:04:17;;;;;;;15.52;8.40;;;;;;;;;;5045627;28;20058;-58
2021/09/29 01:06:50;;;;;;;15.73;8.18;;;;;;;;;;5044910;28;20277;-58
2021/09/29 01:09:53;;;;;;;19.10;9.35;;;;;;;;;;4983017;28;20042;-60
2021/09/29 01:12:46;;;;;;;18.08;8.90;;;;;;;;;;4994969;28;20521;-60
2021/09/29 01:15:20;;;;;;;15.77;8.73;;;;;;;;;;5051618;28;20105;-59
2021/09/29 01:17:49;;;;;;;17.35;9.05;;;;;;;;;;4989630;28;20162;-58
2021/09/29 01:20:22;;;;;;;15.82;8.88;;;;;;;;;;4991604;28;20500;-58
2021/09/29 01:23:24;;;;;;;14.77;8.55;;;;;;;;;;4999708;28;20030;-60
2021/09/29 01:25:59;;;;;;;18.85;9.25;;;;;;;;;;4987929;28;20040;-58
2021/09/29 01:28:48;;;;;;;19.65;9.13;;;;;;;;;;4989988;28;20030;-58
2021/09/29 01:31:15;;;;;;;16.20;8.48;;;;;;;;;;4995958;28;20049;-62
2021/09/29 01:33:42;;;;;;;15.50;9.07;;;;;;;;;;4988548;28;20038;-58
2021/09/29 01:36:08;;;;;;;18.02;8.68;;;;;;;;;;5047071;28;20036;-58
2021/09/29 01:38:34;;;;;;;20.05;8.65;;;;;;;;;;4985574;28;20028;-58
2021/09/29 01:41:00;;;;;;;16.58;9.60;;;;;;;;;;4998662;28;20026;-62
2021/09/29 01:43:28;;;;;;;17.58;9.38;;;;;;;;;;4995194;28;20049;-59
2021/09/29 01:45:54;;;;;;;16.88;8.93;;;;;;;;;;4990396;28;20056;-58
2021/09/29 01:48:19;;;;;;;17.95;9.65;;;;;;;;;;4987678;28;20100;-58
2021/09/29 01:50:47;;;;;;;17.70;8.68;;;;;;;;;;5002772;28;20038;-58
2021/09/29 01:53:15;;;;;;;14.55;8.45;;;;;;;;;;5046229;28;20325;-57
2021/09/29 01:55:40;;;;;;;17.50;9.10;;;;;;;;;;4992398;28;20035;-58
2021/09/29 01:58:06;;;;;;;15.90;9.30;;;;;;;;;;4988465;28;20084;-59
2021/09/29 02:00:32;;;;;;;19.08;9.15;;;;;;;;;;4991793;28;20110;-58
2021/09/29 02:02:59;;;;;;;17.90;8.95;;;;;;;;;;4996374;28;20079;-58
2021/09/29 02:05:30;;;;;;;18.75;9.57;;;;;;;;;;4990986;28;20056;-58
2021/09/29 02:07:56;;;;;;;22.67;10.82;;;;;;;;;;4998884;28;20382;-58
2021/09/29 02:10:21;;;;;;;15.23;8.50;;;;;;;;;;4989723;28;20087;-59
2021/09/29 02:12:47;;;;;;;17.15;9.63;;;;;;;;;;4986268;28;20496;-61
2021/09/29 02:15:12;;;;;;;17.70;9.68;;;;;;;;;;4987018;28;20075;-62
2021/09/29 02:17:38;;;;;;;18.55;9.65;;;;;;;;;;5001230;28;20079;-59
2021/09/29 02:20:04;;;;;;;16.40;9.00;;;;;;;;;;4983679;28;20117;-58
2021/09/29 02:22:29;;;;;;;16.20;7.85;;;;;;;;;;4997092;28;20057;-58
2021/09/29 02:24:54;;;;;;;17.33;8.65;;;;;;;;;;5049698;28;20121;-58
2021/09/29 02:27:20;;;;;;;15.88;9.02;;;;;;;;;;4991127;28;20264;-61
2021/09/29 02:29:45;;;;;;;14.20;7.90;;;;;;;;;;4978898;28;20391;-61
2021/09/29 02:32:11;;;;;;;21.02;9.95;;;;;;;;;;4987493;28;20031;-58
2021/09/29 02:34:36;;;;;;;13.60;8.40;;;;;;;;;;4998061;28;20064;-61
2021/09/29 02:37:02;;;;;;;16.10;9.25;;;;;;;;;;4987835;28;20042;-59
2021/09/29 02:39:28;;;;;;;17.65;10.02;;;;;;;;;;5059090;28;20032;-60
2021/09/29 02:41:53;;;;;;;16.80;9.02;;;;;;;;;;4981668;28;20057;-60
2021/09/29 02:44:18;;;;;;;18.75;9.88;;;;;;;;;;4991001;28;20038;-60
2021/09/29 02:46:44;;;;;;;17.27;8.77;;;;;;;;;;5049253;28;20066;-60
2021/09/29 02:49:10;;;;;;;16.15;8.75;;;;;;;;;;4997226;28;20022;-61
2021/09/29 02:51:36;;;;;;;18.45;9.07;;;;;;;;;;4993719;28;20396;-58
2021/09/29 02:54:02;;;;;;;18.63;8.25;;;;;;;;;;4992284;28;20033;-58
2021/09/29 02:56:29;;;;;;;18.33;8.32;;;;;;;;;;4989028;28;20424;-59
2021/09/29 02:58:55;;;;;;;17.25;8.90;;;;;;;;;;5052906;28;20117;-58
2021/09/29 03:01:20;;;;;;;15.90;8.20;;;;;;;;;;4994380;28;20955;-58
2021/09/29 03:03:45;;;;;;;17.48;8.60;;;;;;;;;;4989911;28;20030;-58
2021/09/29 03:06:11;;;;;;;17.60;8.88;;;;;;;;;;4996100;28;20039;-59
2021/09/29 03:08:36;;;;;;;18.00;9.35;;;;;;;;;;4996211;28;20033;-58
2021/09/29 03:11:02;;;;;;;21.17;10.45;;;;;;;;;;5004620;28;20385;-58
2021/09/29 03:13:28;;;;;;;17.95;10.00;;;;;;;;;;4994800;28;20742;-58
2021/09/29 03:15:53;;;;;;;19.17;9.80;;;;;;;;;;4991977;28;20034;-58
2021/09/29 03:18:18;;;;;;;20.48;9.25;;;;;;;;;;4991407;28;20465;-58
2021/09/29 03:20:45;;;;;;;17.90;8.93;;;;;;;;;;4992183;28;20042;-58
2021/09/29 03:23:10;;;;;;;17.85;8.80;;;;;;;;;;5002468;28;20359;-58
2021/09/29 03:25:36;;;;;;;17.75;8.55;;;;;;;;;;4985820;28;20040;-58
2021/09/29 03:28:02;;;;;;;17.52;8.95;;;;;;;;;;4985892;28;20460;-58
2021/09/29 03:30:28;;;;;;;17.00;8.90;;;;;;;;;;4995445;28;20041;-58
2021/09/29 03:32:53;;;;;;;14.20;8.70;;;;;;;;;;4993042;28;20028;-58
2021/09/29 03:35:19;;;;;;;18.00;8.70;;;;;;;;;;5006742;28;20393;-58
2021/09/29 03:37:45;;;;;;;17.92;9.70;;;;;;;;;;4998615;28;20019;-58
2021/09/29 03:40:13;;;;;;;17.05;9.25;;;;;;;;;;4986015;28;20033;-59
2021/09/29 03:42:39;;;;;;;18.85;9.75;;;;;;;;;;5047125;28;20469;-58
2021/09/29 03:45:06;;;;;;;17.42;9.52;;;;;;;;;;5016984;28;20064;-58
2021/09/29 03:47:32;;;;;;;17.25;9.45;;;;;;;;;;5007733;28;20254;-58
2021/09/29 03:49:57;;;;;;;17.40;9.00;;;;;;;;;;5062319;28;20039;-58
2021/09/29 03:52:23;;;;;;;16.23;8.30;;;;;;;;;;4979803;28;20406;-60
2021/09/29 03:54:48;;;;;;;17.80;8.13;;;;;;;;;;4979131;28;20113;-58
2021/09/29 03:57:14;;;;;;;14.10;8.07;;;;;;;;;;4987628;28;20039;-58
2021/09/29 03:59:39;;;;;;;15.65;8.40;;;;;;;;;;4982928;28;20066;-58
2021/09/29 04:02:05;;;;;;;17.00;9.05;;;;;;;;;;4985097;28;20034;-59
2021/09/29 04:04:30;;;;;;;14.68;8.43;;;;;;;;;;4991825;28;20200;-60
2021/09/29 04:06:56;;;;;;;14.10;8.65;;;;;;;;;;5050590;28;20125;-61
2021/09/29 04:09:21;;;;;;;17.23;9.63;;;;;;;;;;4984527;28;20454;-59
2021/09/29 04:11:46;;;;;;;19.95;9.50;;;;;;;;;;4992975;28;20480;-59
2021/09/29 04:14:12;;;;;;;15.82;8.65;;;;;;;;;;4996273;28;20027;-62
2021/09/29 04:16:37;;;;;;;18.95;9.30;;;;;;;;;;4983293;28;20477;-60
2021/09/29 04:19:03;;;;;;;17.58;8.70;;;;;;;;;;5002646;28;20038;-60
2021/09/29 04:21:28;;;;;;;16.42;9.70;;;;;;;;;;4990023;28;20115;-61
2021/09/29 04:23:54;;;;;;;16.40;9.05;;;;;;;;;;4986253;28;20061;-61
2021/09/29 04:26:19;;;;;;;14.68;8.35;;;;;;;;;;4997962;28;20020;-60
2021/09/29 04:28:45;;;;;;;19.15;8.80;;;;;;;;;;4983386;28;20048;-58
2021/09/29 04:31:10;;;;;;;17.65;9.10;;;;;;;;;;5004029;28;20027;-59
2021/09/29 04:33:36;;;;;;;17.60;8.20;;;;;;;;;;4984096;28;20106;-62
2021/09/29 04:36:02;;;;;;;15.30;8.43;;;;;;;;;;5048444;28;20061;-61
2021/09/29 04:38:27;;;;;;;16.88;8.13;;;;;;;;;;4992141;28;20045;-58
2021/09/29 04:40:53;;;;;;;16.98;8.60;;;;;;;;;;4994065;28;20026;-56
2021/09/29 04:43:18;;;;;;;19.85;7.85;;;;;;;;;;4983084;28;20046;-58
2021/09/29 04:45:44;;;;;;;17.45;7.65;;;;;;;;;;4989177;28;20455;-57
2021/09/29 04:48:09;;;;;;;12.85;7.20;;;;;;;;;;5007193;28;20470;-57
2021/09/29 04:50:35;;;;;;;17.30;7.85;;;;;;;;;;5050087;28;20038;-57
2021/09/29 04:53:01;;;;;;;15.45;8.00;;;;;;;;;;5010018;28;20110;-57
2021/09/29 04:55:30;;;;;;;13.00;7.28;;;;;;;;;;4987849;28;20034;-57
2021/09/29 04:57:55;;;;;;;15.68;7.72;;;;;;;;;;4984633;28;20026;-57
2021/09/29 05:00:21;;;;;;;14.25;7.55;;;;;;;;;;4995318;28;20030;-57
2021/09/29 05:02:49;;;;;;;12.90;6.80;;;;;;;;;;4983140;28;20350;-59
2021/09/29 05:05:15;;;;;;;12.50;6.90;;;;;;;;;;4993067;28;20026;-57
2021/09/29 05:07:41;;;;;;;11.15;6.95;;;;;;;;;;4979336;28;20101;-61
2021/09/29 05:10:14;;;;;;;11.93;6.53;;;;;;;;;;4980188;28;20164;-57
2021/09/29 05:12:39;;;;;;;12.77;6.38;;;;;;;;;;4989153;28;20461;-57
2021/09/29 05:15:05;;;;;;;11.48;6.70;;;;;;;;;;4978263;28;20035;-58
2021/09/29 05:17:31;;;;;;;12.30;6.97;;;;;;;;;;4999455;28;20041;-57
2021/09/29 05:19:56;;;;;;;18.95;8.10;;;;;;;;;;4985105;28;20034;-59
2021/09/29 05:22:21;;;;;;;13.27;6.63;;;;;;;;;;5053343;28;20035;-58
2021/09/29 05:24:48;;;;;;;11.00;7.07;;;;;;;;;;4988749;28;20080;-59
2021/09/29 05:27:13;;;;;;;12.07;7.03;;;;;;;;;;4983552;28;20500;-60
2021/09/29 05:29:42;;;;;;;11.75;6.68;;;;;;;;;;5044887;28;20031;-61
2021/09/29 05:32:07;;;;;;;11.13;6.35;;;;;;;;;;4987655;28;20061;-58
2021/09/29 05:34:33;;;;;;;11.15;6.65;;;;;;;;;;4992713;28;20062;-58
2021/09/29 05:36:59;;;;;;;10.30;6.20;;;;;;;;;;4983957;28;20036;-57
2021/09/29 05:39:24;;;;;;;9.75;5.53;;;;;;;;;;5050797;28;20075;-59
2021/09/29 05:41:50;;;;;;;12.85;6.47;;;;;;;;;;4993067;28;20022;-58
2021/09/29 05:44:15;;;;;;;12.30;5.82;;;;;;;;;;4985836;28;20518;-57
2021/09/29 05:46:41;;;;;;;6.43;4.97;;;;;;;;;;4982459;28;20403;-57
2021/09/29 05:49:06;;;;;;;9.35;5.57;;;;;;;;;;4996523;28;20051;-61
2021/09/29 05:51:32;;;;;;;14.27;6.50;;;;;;;;;;4988376;28;20026;-60
2021/09/29 05:53:57;;;;;;;10.50;5.38;;;;;;;;;;4999375;28;20027;-60
2021/09/29 05:56:23;;;;;;;10.07;5.10;;;;;;;;;;5046619;28;20035;-61
2021/09/29 05:58:48;;;;;;;9.13;4.82;;;;;;;;;;5049328;28;20110;-59
2021/09/29 06:01:14;;;;;;;9.85;5.18;;;;;;;;;;4992448;28;20433;-60
2021/09/29 06:03:39;;;;;;;8.45;4.15;;;;;;;;;;4991641;28;20463;-60
2021/09/29 06:06:05;;;;;;;10.57;4.68;;;;;;;;;;4995946;28;20540;-58
2021/09/29 06:08:31;;;;;;;7.88;4.78;;;;;;;;;;5045466;28;20034;-60
2021/09/29 06:10:57;;;;;;;6.00;4.05;;;;;;;;;;4982186;28;20069;-60
2021/09/29 06:13:24;;;;;;;7.22;4.00;;;;;;;;;;5047884;28;20061;-58
2021/09/29 06:15:50;;;;;;;8.18;4.00;;;;;;;;;;4989802;28;20038;-58
2021/09/29 06:18:16;;;;;;;10.38;4.47;;;;;;;;;;5009525;28;20027;-57
2021/09/29 06:20:48;;;;;;;5.85;3.90;;;;;;;;;;4998758;28;20057;-60
2021/09/29 06:23:15;;;;;;;8.73;3.85;;;;;;;;;;4978981;28;20037;-60
2021/09/29 06:25:41;;;;;;;8.65;3.97;;;;;;;;;;4976219;28;20027;-57
2021/09/29 06:28:06;;;;;;;6.45;3.75;;;;;;;;;;4983918;28;20031;-57
2021/09/29 06:30:32;;;;;;;8.15;3.67;;;;;;;;;;5005389;28;20472;-58
2021/09/29 06:32:57;;;;;;;4.78;3.22;;;;;;;;;;4972605;28;20083;-57
2021/09/29 06:35:23;;;;;;;9.07;3.95;;;;;;;;;;4996524;28;20531;-57
2021/09/29 06:37:49;;;;;;;10.13;3.67;;;;;;;;;;4990126;28;20168;-59
2021/09/29 06:40:16;;;;;;;4.63;3.28;;;;;;;;;;4987980;28;20028;-57
2021/09/29 06:42:42;;;;;;;6.43;3.75;;;;;;;;;;4977025;28;20255;-57
2021/09/29 06:45:10;;;;;;;6.00;3.58;;;;;;;;;;5045421;28;20493;-58
2021/09/29 06:47:38;;;;;;;5.05;3.30;;;;;;;;;;4994643;28;20027;-57
2021/09/29 06:50:05;;;;;;;5.05;3.25;;;;;;;;;;4991830;28;20027;-58
2021/09/29 06:52:31;;;;;;;7.20;3.28;;;;;;;;;;5043194;28;20030;-60
2021/09/29 06:54:56;;;;;;;5.93;2.80;;;;;;;;;;4985093;28;20100;-60
2021/09/29 06:57:22;;;;;;;5.97;3.75;;;;;;;;;;4987306;28;20028;-57
2021/09/29 06:59:47;;;;;;;4.65;2.55;;;;;;;;;;4980987;28;20121;-59
2021/09/29 07:02:13;;;;;;;4.47;2.63;;;;;;;;;;4974385;28;20101;-57
2021/09/29 07:04:38;;;;;;;7.03;3.05;;;;;;;;;;4980033;28;20398;-57
2021/09/29 07:07:04;;;;;;;4.07;2.45;;;;;;;;;;4975685;28;20096;-58
2021/09/29 07:09:29;;;;;;;8.15;3.20;;;;;;;;;;4988797;28;20118;-57
2021/09/29 07:11:55;;;;;;;6.25;2.78;;;;;;;;;;4952113;28;1153557;-57
2021/09/29 07:14:20;;;;;;;3.78;2.60;;;;;;;;;;4986356;28;20037;-58
2021/09/29 07:16:46;;;;;;;4.47;2.72;;;;;;;;;;5042720;28;20125;-57
2021/09/29 07:19:12;;;;;;;7.32;3.00;;;;;;;;;;4994479;28;20107;-58
2021/09/29 07:21:37;;;;;;;13.45;5.03;;;;;;;;;;4996729;28;20072;-60
2021/09/29 07:24:04;;;;;;;8.43;3.28;;;;;;;;;;4989794;28;20257;-57
2021/09/29 07:26:30;;;;;;;6.72;2.60;;;;;;;;;;4982560;28;20038;-57
2021/09/29 07:28:55;;;;;;;7.93;2.15;;;;;;;;;;4983018;28;20026;-57
2021/09/29 07:31:20;;;;;;;2.92;1.98;;;;;;;;;;4998557;28;20048;-58
2021/09/29 07:33:46;;;;;;;5.25;2.30;;;;;;;;;;4975752;28;20038;-61
2021/09/29 07:36:12;;;;;;;5.13;2.22;;;;;;;;;;4983997;28;20159;-57
2021/09/29 07:38:40;;;;;;;7.55;3.42;;;;;;;;;;4977234;28;20111;-57
2021/09/29 07:41:05;;;;;;;8.07;3.40;;;;;;;;;;4984338;28;20019;-57
2021/09/29 07:43:31;;;;;;;4.22;2.10;;;;;;;;;;5040920;28;20087;-57
2021/09/29 07:45:57;;;;;;;4.20;2.10;;;;;;;;;;4975688;28;20026;-57
2021/09/29 07:48:23;;;;;;;5.88;2.00;;;;;;;;;;4997137;28;20077;-61
2021/09/29 07:50:48;;;;;;;7.85;2.00;;;;;;;;;;4982901;28;20060;-59
2021/09/29 07:53:15;;;;;;;3.33;1.80;;;;;;;;;;5039053;28;20038;-57
2021/09/29 07:55:40;;;;;;;7.10;2.72;;;;;;;;;;4977766;28;20026;-57
2021/09/29 07:58:06;;;;;;;5.57;3.25;;;;;;;;;;5043574;28;20065;-57
2021/09/29 08:00:32;;;;;;;3.03;2.30;;;;;;;;;;4984261;28;20038;-58
2021/09/29 08:02:58;;;;;;;4.35;2.83;;;;;;;;;;4976515;28;20076;-57
2021/09/29 08:05:23;;;;;;;5.05;2.50;;;;;;;;;;4980429;28;20486;-57
2021/09/29 08:07:50;;;;;;;6.10;2.28;;;;;;;;;;4986939;28;20045;-57
2021/09/29 08:10:16;;;;;;;2.88;1.63;;;;;;;;;;4984884;28;20031;-60
2021/09/29 08:12:41;;;;;;;2.53;1.63;;;;;;;;;;4993835;28;20083;-61
2021/09/29 08:15:12;;;;;;;3.90;1.60;;;;;;;;;;4975664;28;20393;-58
2021/09/29 08:17:39;;;;;;;6.75;1.80;;;;;;;;;;4979802;28;20495;-57
2021/09/29 08:20:05;;;;;;;2.42;1.40;;;;;;;;;;4988381;28;20527;-57
2021/09/29 08:22:31;;;;;;;3.13;1.10;;;;;;;;;;4981800;28;20065;-60
2021/09/29 08:25:02;;;;;;;4.70;1.40;;;;;;;;;;4990331;28;20065;-60
2021/09/29 08:30:11;;;;;;;2.17;1.63;;;;;;;;;;4989441;28;20026;-58
2021/09/29 08:38:13;;;;;;;4.90;1.80;;;;;;;;;;4990068;28;20047;-58
2021/09/29 08:43:29;;;;;;;6.45;1.80;;;;;;;;;;4995393;28;20530;-58
2021/09/29 08:46:06;;;;;;;2.38;1.40;;;;;;;;;;4978732;28;20123;-61
2021/09/29 08:49:20;;;;;;;8.05;1.70;;;;;;;;;;4990306;28;20022;-61
2021/09/29 08:54:15;;;;;;;4.20;1.50;;;;;;;;;;4983843;28;20091;-60
2021/09/29 09:16:11;;;;;;;4.60;1.65;;;;;;;;;;4980071;28;20505;-61
2021/09/29 09:18:49;;;;;;;3.83;1.92;;;;;;;;;;4983443;28;20138;-59
2021/09/29 09:21:17;;;;;;;5.82;1.50;;;;;;;;;;5044512;28;20450;-59
2021/09/29 09:23:43;;;;;;;9.80;2.10;;;;;;;;;;5047026;28;20044;-58
2021/09/29 09:26:28;;;;;;;3.58;1.65;;;;;;;;;;4978158;28;20235;-58
2021/09/29 09:29:08;;;;;;;4.65;2.38;;;;;;;;;;5044472;28;20031;-61
2021/09/29 09:31:36;;;;;;;4.32;2.20;;;;;;;;;;4994968;28;20024;-60
2021/09/29 09:34:07;;;;;;;4.90;2.20;;;;;;;;;;4983127;28;20109;-58
2021/09/29 09:36:43;;;;;;;4.43;1.40;;;;;;;;;;4976002;28;20117;-58
2021/09/29 09:39:19;;;;;;;2.40;1.70;;;;;;;;;;4986332;28;20494;-58
2021/09/29 09:42:00;;;;;;;4.25;1.70;;;;;;;;;;5005921;28;20494;-59
2021/09/29 09:44:29;;;;;;;4.43;1.80;;;;;;;;;;5035046;28;20030;-60
2021/09/29 09:47:00;;;;;;;2.35;1.90;;;;;;;;;;4979599;28;20049;-58
2021/09/29 09:49:26;;;;;;;7.85;2.13;;;;;;;;;;4976404;28;20113;-58
2021/09/29 09:51:54;;;;;;;9.77;3.08;;;;;;;;;;4981698;28;20134;-59
2021/09/29 09:54:19;;;;;;;5.70;1.92;;;;;;;;;;4983678;28;20031;-59
2021/09/29 09:56:53;;;;;;;5.43;1.90;;;;;;;;;;4986552;28;20057;-59
2021/09/29 09:59:19;;;;;;;3.88;1.50;;;;;;;;;;4991234;28;20033;-58
2021/09/29 10:01:46;;;;;;;4.38;1.90;;;;;;;;;;4980675;28;20030;-58
2021/09/29 10:04:15;;;;;;;4.30;2.20;;;;;;;;;;5054551;28;20416;-59
2021/09/29 10:06:40;;;;;;;5.60;1.83;;;;;;;;;;4991110;28;20026;-62
2021/09/29 10:11:54;;;;;;;5.20;1.60;;;;;;;;;;4993454;28;20050;-60
2021/09/29 10:22:55;;;;;;;4.78;1.48;;;;;;;;;;4994093;28;20141;-58
2021/09/29 10:28:13;;;;;;;2.83;1.38;;;;;;;;;;4997863;28;20511;-58
2021/09/29 10:30:55;;;;;;;7.50;1.98;;;;;;;;;;4986139;28;20488;-62
2021/09/29 10:33:22;;;;;;;4.28;1.27;;;;;;;;;;4977782;28;20094;-59
2021/09/29 10:41:54;;;;;;;2.25;1.00;;;;;;;;;;4981331;28;20031;-59
2021/09/29 10:44:23;;;;;;;4.88;1.20;;;;;;;;;;4982461;28;20031;-59
2021/09/29 11:30:55;;;;;;;7.10;1.08;;;;;;;;;;4981014;28;20175;-58
2021/09/29 11:33:36;;;;;;;3.67;1.00;;;;;;;;;;4999637;28;20163;-59
2021/09/29 11:36:08;;;;;;;2.92;1.13;;;;;;;;;;4984443;28;20027;-59
2021/09/29 12:08:40;;;;;;;5.40;1.00;;;;;;;;;;4985733;28;20079;-59
2021/09/29 12:11:13;;;;;;;3.83;1.27;;;;;;;;;;4987865;28;20065;-58
2021/09/29 12:13:45;;;;;;;5.45;1.27;;;;;;;;;;5001823;28;20054;-58
2021/09/29 12:16:12;;;;;;;3.97;1.50;;;;;;;;;;4980402;28;20102;-57
2021/09/29 12:18:37;;;;;;;5.70;1.13;;;;;;;;;;4987824;28;20075;-57
2021/09/29 12:21:04;;;;;;;2.40;0.80;;;;;;;;;;4985507;28;20065;-62
2021/09/29 12:23:29;;;;;;;6.03;1.00;;;;;;;;;;4975009;28;20330;-58
2021/09/29 12:26:24;;;;;;;3.53;1.20;;;;;;;;;;5004137;28;20031;-58
2021/09/29 12:29:01;;;;;;;2.92;1.30;;;;;;;;;;4991009;28;20052;-57
2021/09/29 12:31:44;;;;;;;1.70;1.30;;;;;;;;;;5040634;28;20038;-58
2021/09/29 12:34:31;;;;;;;5.28;1.00;;;;;;;;;;4978230;28;20030;-62
2021/09/29 12:37:10;;;;;;;2.38;0.70;;;;;;;;;;4991164;28;20067;-62
2021/09/29 12:39:37;;;;;;;3.42;0.98;;;;;;;;;;5042016;28;20113;-58
2021/09/29 12:42:04;;;;;;;3.47;1.30;;;;;;;;;;4985132;28;20268;-57
2021/09/29 12:44:30;;;;;;;4.28;1.20;;;;;;;;;;4976112;28;20041;-58
2021/09/29 12:47:07;;;;;;;4.93;1.10;;;;;;;;;;4980152;28;20404;-60
2021/09/29 12:49:32;;;;;;;7.05;1.08;;;;;;;;;;4988516;28;20140;-58
2021/09/29 12:52:16;;;;;;;3.80;0.88;;;;;;;;;;4987092;28;20118;-58
2021/09/29 12:54:48;;;;;;;5.00;1.08;;;;;;;;;;4973871;28;20027;-59
2021/09/29 12:57:13;;;;;;;3.60;0.82;;;;;;;;;;4980431;28;20104;-59
2021/09/29 12:59:39;;;;;;;4.68;1.00;;;;;;;;;;4980417;28;20072;-59
2021/09/29 13:02:04;;;;;;;3.60;1.20;;;;;;;;;;4980977;28;20038;-59
2021/09/29 13:04:30;;;;;;;2.63;0.80;;;;;;;;;;4991058;28;20036;-58
2021/09/29 13:06:55;;;;;;;3.13;1.00;;;;;;;;;;4978570;28;20033;-58
2021/09/29 13:09:20;;;;;;;3.42;1.30;;;;;;;;;;5037759;28;20104;-58
2021/09/29 13:11:46;;;;;;;6.85;1.20;;;;;;;;;;5058085;28;20550;-59
2021/09/29 13:14:11;;;;;;;2.75;1.00;;;;;;;;;;5010345;28;20154;-58
2021/09/29 13:16:37;;;;;;;2.13;0.90;;;;;;;;;;4980403;28;20553;-61
2021/09/29 13:19:09;;;;;;;2.58;0.60;;;;;;;;;;4975547;28;20031;-58
2021/09/29 13:21:37;;;;;;;4.28;1.02;;;;;;;;;;5040354;28;20495;-58
2021/09/29 13:24:28;;;;;;;2.42;1.00;;;;;;;;;;5001227;28;20024;-58
2021/09/29 13:37:34;;;;;;;5.75;1.50;;;;;;;;;;4977165;28;20113;-59
2021/09/29 13:39:59;;;;;;;7.72;1.48;;;;;;;;;;5000924;28;20511;-59
2021/09/29 13:42:25;;;;;;;5.63;1.20;;;;;;;;;;4978246;28;20440;-59
2021/09/29 13:44:51;;;;;;;6.90;0.93;;;;;;;;;;4986126;28;20480;-58
2021/09/29 13:47:17;;;;;;;4.03;1.00;;;;;;;;;;4978714;28;20023;-60
2021/09/29 13:49:42;;;;;;;2.90;1.00;;;;;;;;;;4985773;28;20468;-57
2021/09/29 13:52:13;;;;;;;4.95;1.10;;;;;;;;;;4993756;28;20031;-61
2021/09/29 13:54:40;;;;;;;2.72;1.00;;;;;;;;;;4990482;28;20030;-58
2021/09/29 14:29:33;;;;;;;3.53;1.52;;;;;;;;;;4982927;28;20425;-59
2021/09/29 14:34:24;;;;;;;4.40;1.70;;;;;;;;;;4994805;28;20037;-56
2021/09/29 14:36:50;;;;;;;2.38;1.00;;;;;;;;;;4984710;28;20193;-58
2021/09/29 14:39:15;;;;;;;3.95;1.27;;;;;;;;;;4976620;28;20030;-61
2021/09/29 14:41:41;;;;;;;1.98;1.27;;;;;;;;;;4994458;28;20473;-58
2021/09/29 14:44:08;;;;;;;9.05;2.22;;;;;;;;;;4991133;28;20092;-61
2021/09/29 14:46:34;;;;;;;6.82;2.00;;;;;;;;;;4991801;28;20513;-62
2021/09/29 14:49:00;;;;;;;6.82;1.50;;;;;;;;;;5035338;28;20473;-63
2021/09/29 14:51:25;;;;;;;4.13;1.23;;;;;;;;;;4990286;28;20085;-62
2021/09/29 14:53:54;;;;;;;5.32;2.35;;;;;;;;;;4982456;28;20411;-59
2021/09/29 14:56:20;;;;;;;6.65;3.97;;;;;;;;;;4992536;28;20034;-59
2021/09/29 14:58:46;;;;;;;15.07;8.13;;;;;;;;;;4983389;28;20046;-64
2021/09/29 15:01:12;;;;;;;5.53;3.45;;;;;;;;;;5046714;28;20619;-59
2021/09/29 15:03:40;;;;;;;5.10;2.30;;;;;;;;;;4989030;28;20026;-63
2021/09/29 15:06:06;;;;;;;3.15;1.38;;;;;;;;;;4987810;28;20031;-60
2021/09/29 15:08:32;;;;;;;3.65;1.50;;;;;;;;;;4992494;28;20109;-60
2021/09/29 15:10:58;;;;;;;2.42;1.65;;;;;;;;;;5009749;28;20125;-59
2021/09/29 15:13:34;;;;;;;3.45;1.45;;;;;;;;;;4984342;28;20458;-61
2021/09/29 15:16:07;;;;;;;5.78;1.85;;;;;;;;;;4984710;28;20089;-59
2021/09/29 15:18:58;;;;;;;1.80;0.90;;;;;;;;;;4982998;28;20083;-59
2021/09/29 15:48:17;;;;;;;2.65;1.75;;;;;;;;;;4991760;28;20528;-59
2021/09/29 15:54:05;;;;;;;4.25;1.75;;;;;;;;;;4983099;28;20096;-62
2021/09/29 16:09:19;;;;;;;4.82;0.90;;;;;;;;;;4989130;28;20029;-63
2021/09/29 16:22:28;;;;;;;3.97;1.83;;;;;;;;;;4984694;28;20073;-58
2021/09/29 16:37:27;;;;;;;1.95;0.63;;;;;;;;;;4979893;28;20125;-60
2021/09/29 16:39:53;;;;;;;1.50;0.90;;;;;;;;;;4982940;28;20031;-58
2021/09/29 16:42:18;;;;;;;12.45;5.63;;;;;;;;;;4984807;28;20030;-58
2021/09/29 16:44:44;;;;;;;4.55;2.50;;;;;;;;;;4983624;28;20035;-59
2021/09/29 16:47:10;;;;;;;5.63;2.90;;;;;;;;;;4989252;28;20071;-58
2021/09/29 16:49:37;;;;;;;2.03;1.30;;;;;;;;;;4978013;28;20470;-59
2021/09/29 16:54:51;;;;;;;2.33;1.35;;;;;;;;;;4977654;28;20035;-58
2021/09/29 16:57:20;;;;;;;2.15;1.20;;;;;;;;;;4987045;28;20051;-58
2021/09/29 17:02:26;;;;;;;2.15;0.70;;;;;;;;;;4980598;28;20041;-61
2021/09/29 17:04:51;;;;;;;2.60;1.30;;;;;;;;;;4993476;28;20028;-62
2021/09/29 17:07:17;;;;;;;2.47;1.27;;;;;;;;;;4986908;28;20058;-61
2021/09/29 17:09:42;;;;;;;1.77;1.30;;;;;;;;;;4982296;28;20158;-58
2021/09/29 17:12:08;;;;;;;2.08;1.10;;;;;;;;;;4985538;28;20112;-62
2021/09/29 17:14:34;;;;;;;4.65;1.50;;;;;;;;;;4974695;28;20030;-61
2021/09/29 17:17:00;;;;;;;2.20;1.40;;;;;;;;;;4982314;28;20067;-59
2021/09/29 17:19:25;;;;;;;1.65;1.30;;;;;;;;;;4990681;28;20038;-63
2021/09/29 17:21:50;;;;;;;4.50;1.10;;;;;;;;;;4989525;28;20166;-59
2021/09/29 17:24:16;;;;;;;2.72;1.52;;;;;;;;;;4994120;28;20046;-59
2021/09/29 17:26:42;;;;;;;1.88;1.40;;;;;;;;;;4999443;28;20042;-58
2021/09/29 17:29:10;;;;;;;2.75;1.45;;;;;;;;;;5046662;28;20108;-59
2021/09/29 17:39:50;;;;;;;1.25;1.13;;;;;;;;;;4986219;28;20039;-62
2021/09/29 17:53:08;;;;;;;2.17;1.20;;;;;;;;;;4985569;28;20091;-61
2021/09/29 17:55:34;;;;;;;3.45;1.23;;;;;;;;;;5047409;28;20022;-61
2021/09/29 17:58:00;;;;;;;1.65;1.20;;;;;;;;;;4977491;28;20027;-59
2021/09/29 18:00:28;;;;;;;1.50;1.30;;;;;;;;;;4993954;28;20020;-61
2021/09/29 18:03:06;;;;;;;2.72;1.20;;;;;;;;;;4975293;28;20027;-58
2021/09/29 18:05:35;;;;;;;1.85;1.20;;;;;;;;;;4983871;28;20023;-58
2021/09/29 18:08:03;;;;;;;2.43;1.60;;;;;;;;;;5047290;28;20026;-62
2021/09/29 18:10:28;;;;;;;3.22;1.50;;;;;;;;;;4979563;28;20270;-57
2021/09/29 18:12:55;;;;;;;3.08;2.03;;;;;;;;;;4994232;28;20443;-58
2021/09/29 18:15:21;;;;;;;2.90;1.48;;;;;;;;;;5001696;28;20026;-58
2021/09/29 18:17:46;;;;;;;2.33;1.17;;;;;;;;;;4983912;28;20117;-59
2021/09/29 18:20:12;;;;;;;2.15;1.23;;;;;;;;;;5050971;28;20409;-59
2021/09/29 18:22:39;;;;;;;1.30;1.20;;;;;;;;;;5005363;28;20030;-62
2021/09/29 18:25:06;;;;;;;1.10;1.00;;;;;;;;;;5040824;28;20048;-61
2021/09/29 18:27:32;;;;;;;1.35;1.13;;;;;;;;;;4989535;28;20049;-59
2021/09/29 18:29:59;;;;;;;2.55;1.20;;;;;;;;;;4983175;28;20026;-58
2021/09/29 18:32:26;;;;;;;2.05;1.40;;;;;;;;;;4980856;28;20037;-59
2021/09/29 18:34:51;;;;;;;1.70;1.20;;;;;;;;;;4984876;28;20061;-63
2021/09/29 18:37:20;;;;;;;1.40;1.30;;;;;;;;;;4987515;28;20373;-57
2021/09/29 18:39:47;;;;;;;1.90;1.50;;;;;;;;;;4986630;28;20038;-59
2021/09/29 18:42:13;;;;;;;3.55;2.50;;;;;;;;;;4987144;28;20025;-57
2021/09/29 18:44:40;;;;;;;3.78;1.70;;;;;;;;;;4997641;28;20039;-57
2021/09/29 18:47:07;;;;;;;3.45;1.30;;;;;;;;;;4978890;28;20117;-59
2021/09/29 18:49:33;;;;;;;1.20;1.08;;;;;;;;;;4986714;28;20030;-62
2021/09/29 18:51:59;;;;;;;1.67;1.00;;;;;;;;;;4989700;28;20030;-58
2021/09/29 19:07:52;;;;;;;1.73;1.45;;;;;;;;;;4933484;28;20416;-58
2021/09/29 19:10:17;;;;;;;3.08;1.30;;;;;;;;;;4933141;28;20072;-58
2021/09/29 19:12:43;;;;;;;2.78;1.20;;;;;;;;;;4935814;28;20056;-57
2021/09/29 19:15:09;;;;;;;1.48;1.13;;;;;;;;;;4929143;28;20020;-58
2021/09/29 19:17:34;;;;;;;1.13;1.02;;;;;;;;;;4947016;28;20110;-60